TimeCST,TemperatureF,Dew PointF,Humidity,Sea Level PressureIn,VisibilityMPH,Wind Direction,Wind SpeedMPH,Gust SpeedMPH,PrecipitationIn,Events,Conditions,WindDirDegrees,DateUTC
6:00 AM,74,71,86,29.98,7,Calm,Calm,,,,Partly Cloudy,,2012-11-03 12:00:00
6:00 AM,73.4,69.8,88,29.98,6.2,Calm,Calm,-,N/A,,Scattered Clouds,0,2012-11-03 12:00:00
7:00 AM,75.2,71.6,89,29.98,6.2,Calm,Calm,-,N/A,,Scattered Clouds,0,2012-11-03 13:00:00
8:00 AM,78.8,71.6,78,30.01,6.2,Calm,Calm,-,N/A,,Scattered Clouds,0,2012-11-03 14:00:00
9:00 AM,83,73,64,30.03,9,East,13.8,,,,Partly Cloudy,80,2012-11-03 15:00:00
9:00 AM,82.4,73.4,74,30.01,6.2,East,13.8,-,N/A,,Scattered Clouds,80,2012-11-03 15:00:00
10:00 AM,84.2,69.8,62,30.01,6.2,East,11.5,-,N/A,,Scattered Clouds,80,2012-11-03 16:00:00
11:00 AM,86.0,69.8,58,30.01,6.2,East,13.8,-,N/A,,Scattered Clouds,90,2012-11-03 17:00:00
12:00 PM,86,69,48,29.99,9,East,13.8,,,,Haze,90,2012-11-03 18:00:00
12:00 PM,86.0,69.8,58,29.98,6.2,East,13.8,-,N/A,,Scattered Clouds,90,2012-11-03 18:00:00
1:00 PM,84.2,69.8,62,29.95,6.2,ENE,11.5,-,N/A,,Scattered Clouds,70,2012-11-03 19:00:00
2:00 PM,84.2,69.8,62,29.95,6.2,ENE,11.5,-,N/A,,Scattered Clouds,60,2012-11-03 20:00:00
3:00 PM,85,69,49,29.93,10,NE,10.4,,,,Haze,50,2012-11-03 21:00:00
3:00 PM,86.0,68.0,55,29.92,6.2,NE,10.4,-,N/A,,Scattered Clouds,50,2012-11-03 21:00:00
4:00 PM,84.2,68.0,58,29.95,6.2,NE,11.5,-,N/A,,Scattered Clouds,50,2012-11-03 22:00:00
5:00 PM,82.4,69.8,66,29.95,6.2,North,6.9,-,N/A,,Scattered Clouds,350,2012-11-03 23:00:00
6:00 PM,79,70,67,29.97,10,NE,5.8,,,,Haze,50,2012-11-04 00:00:00
6:00 PM,78.8,69.8,74,29.95,6.2,NE,5.8,-,N/A,,Scattered Clouds,50,2012-11-04 00:00:00
7:00 PM,78.8,69.8,74,29.98,6.2,NNE,6.9,-,N/A,,Scattered Clouds,20,2012-11-04 01:00:00
8:00 PM,77.0,71.6,83,30.01,6.2,ENE,13.8,-,N/A,,Mostly Cloudy,70,2012-11-04 02:00:00